Weather reports worldwide

Advertisment
San Fernando, Spain (8453): temperature & dewpoint: 05.12.2019 08:00:00 - 11.12.2019 08:00:00 (CET)San Fernando, Spain (8453): wind speed & gusts: 05.12.2019 08:00:00 - 11.12.2019 08:00:00 (CET)San Fernando, Spain (8453): wind direction: 05.12.2019 08:00:00 - 11.12.2019 08:00:00 (CET)San Fernando, Spain (8453): reduced air pressure: 05.12.2019 08:00:00 - 11.12.2019 08:00:00 (CET)San Fernando, Spain (8453): precipitation: 05.12.2019 08:00:00 - 11.12.2019 08:00:00 (CET)
Date & Time tt [°C] td [°C] ff [km/h] ff [kn] fx [km/h] fx [kn] dd ppp [hPa] rr [mm]
11.12.2019 08:00:00 11,8 10,4 4 2 8 4 W 1026,1 0,0
11.12.2019 07:00:00 10,2 9,2 1 1 10 5 W 1025,5 -
11.12.2019 06:00:00 11,2 10,3 4 2 9 5 SW 1025,3 0,0
11.12.2019 05:00:00 10,4 9,3 4 2 9 5 SSE 1025,3 0,0
11.12.2019 04:00:00 10,3 9,0 4 2 8 5 E 1025,4 0,0
11.12.2019 03:00:00 11,3 10,0 5 3 7 4 SE 1025,4 0,0
11.12.2019 02:00:00 11,3 9,7 4 2 6 3 ESE 1025,8 0,0
11.12.2019 01:00:00 14,1 12,3 5 3 8 5 WNW 1026,2 -
11.12.2019 00:00:00 14,0 11,7 4 2 8 4 WNW 1026,1 0,0
10.12.2019 23:00:00 14,0 11,1 5 3 8 4 WNW 1026,2 0,0
10.12.2019 22:00:00 14,1 10,6 2 1 5 3 WNW 1026,1 0,0
10.12.2019 21:00:00 13,9 10,2 3 2 7 4 W 1026,4 0,0
10.12.2019 20:00:00 14,2 9,8 3 2 10 6 WNW 1026,3 0,0
10.12.2019 19:00:00 14,1 10,5 4 2 15 8 NNW 1025,9 -
10.12.2019 18:00:00 14,8 11,3 5 3 11 6 WNW 1025,9 0,0
10.12.2019 17:00:00 15,7 10,0 6 3 9 5 W 1025,8 0,0
10.12.2019 16:00:00 15,6 9,4 6 3 12 7 W 1025,9 0,0
10.12.2019 15:00:00 14,9 9,4 5 3 11 6 WNW 1026,1 0,0
10.12.2019 14:00:00 14,4 9,4 1 1 9 5 ENE 1026,9 0,0
10.12.2019 13:00:00 12,6 9,4 2 1 8 4 NE 1028,1 -
10.12.2019 12:00:00 10,9 8,7 4 2 12 6 N 1028,6 0,0
10.12.2019 11:00:00 9,2 7,8 5 3 11 6 ENE 1028,4 0,0
10.12.2019 10:00:00 8,5 7,3 5 3 8 4 E 1027,7 0,0
10.12.2019 09:00:00 8,5 7,1 4 2 6 3 E 1027,2 0,0
10.12.2019 08:00:00 9,4 8,0 2 1 7 4 NE 1027,2 0,0
10.12.2019 07:00:00 9,9 8,4 4 2 17 9 N 1027,0 -
10.12.2019 06:00:00 11,0 9,0 8 4 16 9 NNW 1027,1 0,0
10.12.2019 05:00:00 12,0 9,9 6 4 16 9 NNW 1027,2 0,0
10.12.2019 04:00:00 12,2 10,3 6 4 15 8 N 1027,9 0,0
10.12.2019 03:00:00 12,3 10,4 5 3 9 5 NNW 1028,1 0,0
10.12.2019 02:00:00 12,7 10,6 5 3 13 7 NNW 1028,0 0,0
10.12.2019 01:00:00 12,9 10,6 5 3 11 6 N 1028,6 -
10.12.2019 00:00:00 14,2 11,6 4 2 11 6 NNW 1028,5 0,0
09.12.2019 23:00:00 14,3 11,4 6 4 12 7 NW 1028,5 0,0
09.12.2019 22:00:00 14,1 11,6 6 3 10 6 NW 1028,8 0,0
09.12.2019 21:00:00 14,1 11,8 4 2 8 4 NNW 1028,8 0,0
09.12.2019 20:00:00 15,0 12,5 2 1 12 6 NNW 1028,3 0,0
09.12.2019 19:00:00 15,7 13,2 6 3 18 10 NNW 1028,3 -
09.12.2019 18:00:00 16,3 13,4 12 7 21 11 NW 1028,1 0,0
09.12.2019 17:00:00 16,6 13,6 10 6 18 10 NW 1027,9 0,0
09.12.2019 16:00:00 16,6 13,6 11 6 20 11 NW 1028,1 0,0
09.12.2019 15:00:00 16,5 13,6 8 5 19 10 WNW 1028,3 0,0
09.12.2019 14:00:00 16,4 12,7 8 4 14 8 WNW 1028,8 0,0
09.12.2019 13:00:00 17,7 13,5 5 3 11 6 NNW 1029,7 -
09.12.2019 12:00:00 15,9 12,8 4 2 13 7 NE 1030,4 0,0
09.12.2019 11:00:00 14,2 12,4 4 2 9 5 NNW 1030,5 0,0
09.12.2019 10:00:00 13,5 12,2 1 1 7 4 W 1029,9 0,0
09.12.2019 09:00:00 12,8 11,7 4 2 7 4 E 1029,3 0,0
09.12.2019 08:00:00 12,7 11,6 2 1 4 2 NE 1028,8 0,0
09.12.2019 07:00:00 12,6 11,4 1 1 5 3 N 1028,1 -
09.12.2019 06:00:00 12,6 11,4 3 1 6 4 W 1027,9 0,0
09.12.2019 05:00:00 12,9 11,7 3 1 4 2 NW 1027,8 0,0
09.12.2019 04:00:00 12,9 11,4 2 1 6 3 WSW 1027,9 0,0
09.12.2019 03:00:00 13,1 11,7 5 3 8 4 SW 1027,6 0,0
09.12.2019 02:00:00 12,2 10,8 4 2 5 3 SE 1028,0 0,0
09.12.2019 01:00:00 12,0 10,4 4 2 7 4 ESE 1028,2 -
09.12.2019 00:00:00 12,4 10,6 3 2 6 3 ESE 1028,2 0,0
08.12.2019 23:00:00 13,7 11,8 2 1 4 2 W 1028,0 0,0
08.12.2019 22:00:00 13,2 11,2 3 2 5 3 SE 1028,0 0,0
08.12.2019 21:00:00 13,6 11,3 1 0 6 3 W 1027,7 0,0
08.12.2019 20:00:00 13,5 11,2 0 0 8 4 W 1027,5 0,0
08.12.2019 19:00:00 13,6 11,3 5 3 12 6 NW 1027,0 -
08.12.2019 18:00:00 13,8 11,0 6 4 15 8 W 1026,6 0,0
08.12.2019 17:00:00 13,8 11,1 10 6 21 11 W 1026,3 0,0
08.12.2019 16:00:00 13,1 11,1 8 4 17 9 W 1026,0 0,0
08.12.2019 15:00:00 13,7 11,6 9 5 15 8 WNW 1026,2 0,0
08.12.2019 14:00:00 14,4 11,9 8 5 19 11 W 1026,3 0,0
08.12.2019 13:00:00 15,7 11,2 8 4 16 9 W 1027,1 -
08.12.2019 12:00:00 14,7 11,9 6 3 10 6 WSW 1027,4 0,0
08.12.2019 11:00:00 13,6 11,3 2 1 6 3 WNW 1027,6 0,0
08.12.2019 10:00:00 11,7 10,2 1 1 6 3 ESE 1026,9 0,0
08.12.2019 09:00:00 10,6 9,2 3 2 8 4 ESE 1026,3 0,0
08.12.2019 08:00:00 10,6 9,2 4 2 7 4 ESE 1025,8 0,0
08.12.2019 07:00:00 10,6 9,2 1 0 6 3 SE 1025,4 -
08.12.2019 06:00:00 11,2 9,7 3 1 6 4 E 1025,0 0,0
08.12.2019 05:00:00 10,8 8,9 4 2 6 4 ESE 1024,8 0,0
08.12.2019 04:00:00 11,5 8,9 0 0 7 4 W 1025,4 0,0
08.12.2019 03:00:00 12,0 9,2 4 2 9 5 ESE 1025,2 0,0
08.12.2019 02:00:00 12,2 8,7 4 2 6 3 E 1025,3 0,0
08.12.2019 01:00:00 13,1 9,7 3 2 7 4 NE 1025,4 -
08.12.2019 00:00:00 13,5 8,5 5 3 7 4 E 1025,3 0,0
07.12.2019 23:00:00 13,8 8,4 1 0 6 4 N 1025,2 0,0
07.12.2019 22:00:00 14,0 8,7 3 2 8 4 E 1025,0 0,0
07.12.2019 21:00:00 14,9 9,0 4 2 6 4 NNE 1024,7 0,0
07.12.2019 20:00:00 15,4 9,0 4 2 8 5 ENE 1024,1 0,0
07.12.2019 19:00:00 16,2 8,9 4 2 16 9 NNW 1023,5 -
07.12.2019 18:00:00 16,7 8,9 10 5 17 9 NW 1023,1 0,0
07.12.2019 17:00:00 17,8 8,4 8 4 17 9 NW 1022,4 0,0
07.12.2019 16:00:00 18,0 9,6 7 4 16 9 NW 1022,1 0,0
07.12.2019 15:00:00 18,4 9,2 10 5 18 10 NW 1021,9 0,0
07.12.2019 14:00:00 17,0 9,4 8 5 14 8 NW 1022,4 0,0
07.12.2019 13:00:00 16,9 9,0 6 4 15 8 N 1023,1 -
07.12.2019 12:00:00 15,8 9,0 5 3 14 7 NNE 1023,5 0,0
07.12.2019 11:00:00 13,7 8,5 5 3 12 6 ENE 1023,6 0,0
07.12.2019 10:00:00 11,5 7,4 6 3 14 7 NE 1023,0 0,0
07.12.2019 09:00:00 11,6 7,3 6 4 14 7 ENE 1022,2 0,0
07.12.2019 08:00:00 10,9 7,3 5 3 13 7 ENE 1021,7 0,0
07.12.2019 07:00:00 11,4 7,3 10 5 18 10 ENE 1021,3 -
07.12.2019 06:00:00 11,9 7,4 8 4 18 10 ENE 1021,0 0,0
07.12.2019 05:00:00 11,9 7,6 7 4 15 8 NE 1020,9 0,0
07.12.2019 04:00:00 12,4 8,1 6 3 16 9 NE 1020,7 0,0
07.12.2019 03:00:00 12,9 8,4 8 4 25 14 ENE 1020,7 0,0
07.12.2019 02:00:00 14,0 9,8 12 7 21 12 ENE 1020,6 0,0
07.12.2019 01:00:00 14,0 9,8 13 7 24 13 E 1020,6 -
07.12.2019 00:00:00 14,3 9,7 12 7 23 13 E 1020,5 0,0
06.12.2019 23:00:00 14,5 9,6 14 7 27 15 E 1020,2 0,0
06.12.2019 22:00:00 14,8 9,6 14 7 29 15 E 1019,7 0,0
06.12.2019 21:00:00 14,9 9,0 12 7 26 14 E 1019,7 0,0
06.12.2019 20:00:00 15,3 8,8 14 7 24 13 E 1019,2 0,0
06.12.2019 19:00:00 15,7 8,4 8 4 17 9 E 1018,9 -
06.12.2019 18:00:00 16,9 8,5 13 7 32 17 E 1018,3 0,0
06.12.2019 17:00:00 18,1 8,4 18 10 36 19 E 1017,7 0,0
06.12.2019 16:00:00 18,7 8,9 19 10 37 20 E 1017,5 0,0
06.12.2019 15:00:00 18,9 9,4 18 10 37 20 E 1017,3 0,0
06.12.2019 14:00:00 19,0 9,8 20 11 41 22 E 1017,6 0,0
06.12.2019 13:00:00 18,2 10,0 18 10 38 21 E 1018,2 -
06.12.2019 12:00:00 14,9 9,4 4 2 13 7 NE 1019,1 0,0
06.12.2019 11:00:00 14,3 8,9 4 2 18 10 E 1019,3 0,0
06.12.2019 10:00:00 11,5 7,6 8 4 21 12 ENE 1018,6 0,0
06.12.2019 09:00:00 10,7 7,7 6 3 21 11 NE 1017,8 0,0
06.12.2019 08:00:00 11,2 7,6 9 5 21 12 NE 1016,9 0,0
06.12.2019 07:00:00 12,5 8,3 13 7 21 11 ENE 1016,2 -
06.12.2019 06:00:00 11,8 7,8 8 5 16 9 ENE 1015,9 0,0
06.12.2019 05:00:00 11,9 8,0 8 4 15 8 ENE 1015,9 0,0
06.12.2019 04:00:00 11,7 7,3 8 5 21 12 NNE 1015,7 0,0
06.12.2019 03:00:00 13,3 8,0 10 6 21 12 ENE 1015,4 0,0
06.12.2019 02:00:00 12,7 7,6 3 2 14 7 NE 1015,6 0,0
06.12.2019 01:00:00 13,4 7,4 6 4 21 11 ENE 1015,8 -
06.12.2019 00:00:00 13,9 7,4 9 5 21 11 ENE 1015,9 0,0
05.12.2019 23:00:00 14,2 7,0 9 5 29 15 ENE 1015,6 0,0
05.12.2019 22:00:00 14,2 7,3 13 7 26 14 E 1015,3 0,0
05.12.2019 21:00:00 14,7 7,0 9 5 20 11 E 1014,9 0,0
05.12.2019 20:00:00 15,0 6,8 12 7 24 13 E 1014,7 0,0
05.12.2019 19:00:00 15,3 7,3 8 4 18 10 E 1014,0 -
05.12.2019 18:00:00 16,2 7,1 9 5 22 12 E 1013,5 0,0
05.12.2019 17:00:00 17,8 8,1 10 5 26 14 ESE 1012,7 0,0
05.12.2019 16:00:00 17,7 7,4 11 6 29 16 E 1012,3 0,0
05.12.2019 15:00:00 17,7 6,2 11 6 23 13 E 1012,3 0,0
05.12.2019 14:00:00 16,3 6,1 5 3 13 7 N 1012,7 0,0
05.12.2019 13:00:00 15,4 6,1 8 4 14 8 E 1013,3 -
05.12.2019 12:00:00 13,4 5,6 5 3 16 9 NE 1013,9 0,0
05.12.2019 11:00:00 11,8 5,0 8 5 18 10 ENE 1013,8 0,0
05.12.2019 10:00:00 9,0 3,9 8 4 16 9 NE 1013,4 0,0
05.12.2019 09:00:00 7,7 3,6 4 2 16 8 NNE 1012,5 0,0
05.12.2019 08:00:00 8,5 4,3 8 5 19 10 NE 1012,4 0,0

tt = temperature
td = dewpoint
ff = wind speed
fx = gusts
dd = wind direction
ppp = reduced air pressure
rr = precipitation

Next stations